Time;durP1;ratioP1;P1;durP2;ratioP2;P2;SDS_P1;SDS_P2;PMS_P1;PMS_P2;Temp;Humidity;BMP_temperature;BMP_pressure;BME280_temperature;BME280_humidity;BME280_pressure;Samples;Min_cycle;Max_cycle;Signal;HPM_P1;HPM_P2
2022/11/10 04:00:52;;;;;;;24.73;7.38;;;9.70;99.90;;;;;;6127903;23;20032;-78
2022/11/10 04:03:18;;;;;;;29.48;7.35;;;9.70;99.90;;;;;;6185372;23;20013;-78
2022/11/10 04:11:11;;;;;;;33.20;8.55;;;9.60;99.90;;;;;;6185645;23;20462;-79
2022/11/10 04:16:21;;;;;;;27.45;7.07;;;9.70;99.90;;;;;;6185797;23;20324;-79
2022/11/10 04:18:47;;;;;;;23.25;5.95;;;9.70;99.90;;;;;;6185830;23;20070;-77
2022/11/10 04:21:12;;;;;;;22.60;6.32;;;9.70;99.90;;;;;;6185692;23;20077;-78
2022/11/10 04:23:38;;;;;;;26.95;7.38;;;9.70;99.90;;;;;;6185478;23;20023;-79
2022/11/10 04:26:28;;;;;;;36.05;6.90;;;9.70;99.90;;;;;;6185604;23;20419;-77
2022/11/10 04:29:00;;;;;;;27.75;6.78;;;9.80;99.90;;;;;;6186013;23;20443;-78
2022/11/10 04:31:29;;;;;;;24.50;5.88;;;9.70;99.90;;;;;;6184635;23;20051;-78
2022/11/10 04:33:55;;;;;;;31.02;6.82;;;9.70;99.90;;;;;;6185293;23;20017;-79
2022/11/10 04:36:23;;;;;;;25.30;5.78;;;9.80;99.90;;;;;;6185979;23;20021;-80
2022/11/10 04:38:49;;;;;;;30.73;6.70;;;9.70;99.90;;;;;;6187035;23;20442;-78
2022/11/10 04:41:15;;;;;;;30.48;6.28;;;9.80;99.90;;;;;;6185322;23;20055;-79
2022/11/10 04:43:42;;;;;;;24.33;5.10;;;9.80;99.90;;;;;;6185650;23;20063;-80
2022/11/10 04:46:16;;;;;;;34.83;6.30;;;9.80;99.90;;;;;;6185721;23;20044;-81
2022/11/10 04:48:41;;;;;;;33.45;5.57;;;9.80;99.90;;;;;;6186870;23;20013;-81
2022/11/10 04:51:08;;;;;;;21.85;5.03;;;9.80;99.90;;;;;;6185456;23;20111;-79
2022/11/10 04:53:34;;;;;;;27.13;5.65;;;9.90;99.90;;;;;;6184895;23;20447;-81
2022/11/10 04:55:59;;;;;;;23.45;5.88;;;9.90;99.90;;;;;;6187054;23;20028;-78
2022/11/10 04:58:25;;;;;;;24.90;5.55;;;9.80;99.90;;;;;;6185162;23;20013;-79
2022/11/10 05:00:50;;;;;;;31.00;5.90;;;9.80;99.90;;;;;;6184933;23;20032;-78
2022/11/10 05:03:16;;;;;;;18.17;6.38;;;9.90;99.90;;;;;;6186753;23;20469;-78
2022/11/10 05:05:42;;;;;;;28.83;5.72;;;9.90;99.90;;;;;;6185256;23;20020;-79
2022/11/10 05:08:08;;;;;;;32.13;6.25;;;9.90;99.90;;;;;;6185061;23;20469;-79
2022/11/10 05:10:35;;;;;;;32.08;5.90;;;9.80;99.90;;;;;;6184812;23;20084;-80
2022/11/10 05:13:03;;;;;;;28.52;6.95;;;9.80;99.90;;;;;;6185204;23;20465;-81
2022/11/10 05:15:31;;;;;;;23.20;5.80;;;9.80;99.90;;;;;;6210131;23;20056;-80
2022/11/10 05:17:58;;;;;;;24.83;5.50;;;9.80;99.90;;;;;;6210689;23;20013;-79
2022/11/10 05:20:24;;;;;;;23.58;6.10;;;9.80;99.90;;;;;;6185048;23;20016;-80
2022/11/10 05:25:38;;;;;;;28.33;6.00;;;9.80;99.90;;;;;;6184932;23;20075;-78
2022/11/10 05:28:05;;;;;;;26.35;6.22;;;9.80;99.90;;;;;;6184722;23;20020;-78
2022/11/10 05:30:31;;;;;;;23.98;5.53;;;9.80;99.90;;;;;;6186618;23;20017;-79
2022/11/10 05:32:57;;;;;;;31.63;6.85;;;9.80;99.90;;;;;;6209645;23;20088;-81
2022/11/10 05:35:23;;;;;;;26.20;6.35;;;9.80;99.90;;;;;;6159550;23;20048;-78
2022/11/10 05:37:49;;;;;;;28.88;6.28;;;9.80;99.90;;;;;;6209825;23;20013;-78
2022/11/10 05:40:15;;;;;;;33.60;6.93;;;9.80;99.90;;;;;;6184586;23;20024;-79
2022/11/10 05:42:51;;;;;;;31.40;6.80;;;9.80;99.90;;;;;;6186425;23;20020;-79
2022/11/10 05:45:18;;;;;;;31.98;7.25;;;9.70;99.90;;;;;;6209908;23;20013;-78
2022/11/10 05:47:43;;;;;;;26.63;7.20;;;9.70;99.90;;;;;;6185045;23;20017;-79
2022/11/10 05:50:09;;;;;;;26.70;7.00;;;9.70;99.90;;;;;;6184729;23;20023;-79
2022/11/10 05:52:38;;;;;;;35.10;7.95;;;9.70;99.90;;;;;;6184288;23;20299;-78
2022/11/10 05:55:04;;;;;;;28.45;7.82;;;9.70;99.90;;;;;;6184706;23;20077;-81
2022/11/10 05:57:29;;;;;;;31.13;8.98;;;9.70;99.90;;;;;;6160040;23;20024;-80
2022/11/10 05:59:55;;;;;;;38.28;9.70;;;9.60;99.90;;;;;;6184611;23;20017;-80
2022/11/10 06:02:21;;;;;;;33.05;7.68;;;9.60;99.90;;;;;;6184550;23;20013;-79
2022/11/10 06:04:46;;;;;;;29.98;8.25;;;9.60;99.90;;;;;;6186294;23;20024;-79
2022/11/10 06:07:12;;;;;;;30.13;7.43;;;9.60;99.90;;;;;;6186045;23;20338;-80
2022/11/10 06:09:37;;;;;;;36.40;9.13;;;9.60;99.90;;;;;;6183704;23;20013;-79
2022/11/10 06:12:04;;;;;;;27.25;7.70;;;9.70;99.90;;;;;;6183057;23;20017;-80
2022/11/10 06:14:30;;;;;;;35.70;8.00;;;9.60;99.90;;;;;;6158468;23;20462;-79
2022/11/10 06:16:55;;;;;;;34.03;8.00;;;9.60;99.90;;;;;;6184904;23;20017;-79
2022/11/10 06:19:21;;;;;;;28.85;8.98;;;9.60;99.90;;;;;;6183681;23;20017;-78
2022/11/10 06:21:47;;;;;;;27.92;7.32;;;9.60;99.90;;;;;;6183108;23;20017;-79
2022/11/10 06:24:12;;;;;;;27.13;6.82;;;9.70;99.90;;;;;;6183406;23;20017;-80
2022/11/10 06:26:38;;;;;;;29.00;6.80;;;9.70;99.90;;;;;;6183073;23;20024;-78
2022/11/10 06:29:03;;;;;;;30.17;7.70;;;9.70;99.90;;;;;;6183381;23;20447;-82
2022/11/10 06:31:29;;;;;;;32.40;7.90;;;9.70;99.90;;;;;;6183574;23;20052;-80
2022/11/10 06:33:55;;;;;;;33.10;7.93;;;9.70;99.90;;;;;;6183481;23;20017;-79
2022/11/10 06:36:21;;;;;;;28.17;7.38;;;9.70;99.90;;;;;;6183485;23;20020;-81
2022/11/10 06:38:47;;;;;;;26.95;6.45;;;9.70;99.90;;;;;;6183649;23;20021;-78
2022/11/10 06:41:12;;;;;;;27.48;6.88;;;9.70;99.90;;;;;;6208423;23;20482;-81
2022/11/10 06:43:38;;;;;;;32.85;6.28;;;9.70;99.90;;;;;;6183535;23;20102;-79
2022/11/10 06:46:04;;;;;;;29.30;7.00;;;9.70;99.90;;;;;;6184796;23;20376;-79
2022/11/10 06:48:29;;;;;;;38.17;7.30;;;9.70;99.90;;;;;;6183736;23;20021;-80
2022/11/10 06:50:59;;;;;;;31.73;6.72;;;9.70;99.90;;;;;;6183258;23;20017;-78
2022/11/10 06:53:25;;;;;;;35.38;6.93;;;9.70;99.90;;;;;;6184336;23;20427;-80
2022/11/10 06:55:50;;;;;;;28.35;7.30;;;9.70;99.90;;;;;;6185296;23;20024;-76
2022/11/10 06:58:17;;;;;;;24.00;7.90;;;9.60;99.90;;;;;;6187635;23;20008;-80
2022/11/10 07:00:42;;;;;;;25.52;6.88;;;9.70;99.90;;;;;;6184918;23;20024;-81
2022/11/10 07:03:11;;;;;;;31.55;7.10;;;9.70;99.90;;;;;;6188600;23;20009;-82
2022/11/10 07:05:37;;;;;;;28.02;7.20;;;9.60;99.90;;;;;;6188326;23;20024;-80
2022/11/10 07:08:08;;;;;;;28.80;6.88;;;9.60;99.90;;;;;;6188095;23;20332;-81
2022/11/10 07:10:34;;;;;;;33.75;8.05;;;9.70;99.90;;;;;;6188281;23;20431;-82
2022/11/10 07:13:02;;;;;;;31.05;8.02;;;9.60;99.90;;;;;;6188797;23;20009;-80
2022/11/10 07:15:29;;;;;;;28.33;8.52;;;9.70;99.90;;;;;;6186540;23;20024;-82
2022/11/10 07:17:54;;;;;;;34.72;9.13;;;9.60;99.90;;;;;;6211698;23;20087;-82
2022/11/10 07:20:20;;;;;;;34.65;8.90;;;9.60;99.90;;;;;;6184466;23;20434;-82
2022/11/10 07:22:46;;;;;;;35.92;8.68;;;9.60;99.90;;;;;;6160041;23;20091;-82
2022/11/10 07:25:12;;;;;;;35.88;9.15;;;9.60;99.90;;;;;;6185055;23;20016;-81
2022/11/10 07:27:37;;;;;;;35.05;8.45;;;9.60;99.90;;;;;;6187903;23;20013;-80
2022/11/10 07:30:04;;;;;;;36.47;9.43;;;9.60;99.90;;;;;;6187986;23;20013;-80
2022/11/10 07:32:30;;;;;;;37.20;9.23;;;9.60;99.90;;;;;;6186161;23;20368;-83
2022/11/10 07:34:56;;;;;;;32.95;8.88;;;9.60;99.90;;;;;;6186597;23;20047;-80
2022/11/10 07:37:22;;;;;;;32.60;9.15;;;9.60;99.90;;;;;;6186532;23;20012;-83
2022/11/10 07:39:47;;;;;;;39.28;11.52;;;9.70;99.90;;;;;;6186356;23;20063;-81
2022/11/10 07:42:13;;;;;;;30.73;9.43;;;9.70;99.90;;;;;;6186833;23;20013;-82
2022/11/10 07:44:38;;;;;;;29.45;9.68;;;9.70;99.90;;;;;;6186085;23;20017;-82
2022/11/10 07:47:04;;;;;;;33.10;10.75;;;9.70;99.90;;;;;;6188238;23;20017;-80
2022/11/10 07:49:29;;;;;;;33.75;9.63;;;9.70;99.90;;;;;;6161512;23;20454;-81
2022/11/10 07:51:55;;;;;;;34.65;9.73;;;9.70;99.90;;;;;;6188399;23;20016;-80
2022/11/10 07:54:21;;;;;;;35.75;9.65;;;9.70;99.90;;;;;;6186141;23;20435;-81
2022/11/10 07:56:46;;;;;;;31.45;8.52;;;9.70;99.90;;;;;;6186584;23;20386;-82
2022/11/10 07:59:12;;;;;;;36.38;10.07;;;9.70;99.90;;;;;;6187162;23;20314;-83
2022/11/10 08:01:38;;;;;;;31.27;8.82;;;9.70;99.90;;;;;;6188472;23;20023;-80
2022/11/10 08:04:03;;;;;;;32.63;8.70;;;9.80;99.90;;;;;;6189141;23;20017;-82
2022/11/10 08:06:30;;;;;;;32.97;8.60;;;9.80;99.90;;;;;;6162156;23;20525;-79
2022/11/10 08:08:55;;;;;;;34.22;9.02;;;9.90;99.90;;;;;;6186978;23;20095;-80
2022/11/10 08:11:21;;;;;;;28.52;8.20;;;9.90;99.90;;;;;;6185663;23;20474;-83
2022/11/10 08:13:47;;;;;;;29.13;8.40;;;10.00;99.90;;;;;;6187376;23;20025;-80
2022/11/10 08:16:12;;;;;;;32.20;8.15;;;10.10;99.90;;;;;;6186030;23;20013;-81
2022/11/10 08:18:38;;;;;;;35.22;10.00;;;10.20;99.90;;;;;;6186528;23;20009;-81
2022/11/10 08:21:05;;;;;;;34.08;9.40;;;10.20;99.90;;;;;;6186608;23;20009;-82
2022/11/10 08:23:31;;;;;;;31.23;8.45;;;10.30;99.90;;;;;;6160688;23;20095;-76
2022/11/10 08:25:58;;;;;;;29.25;8.13;;;10.40;99.90;;;;;;6160787;23;20445;-79
2022/11/10 08:28:23;;;;;;;32.25;8.35;;;10.50;99.90;;;;;;6185866;23;20009;-79
2022/11/10 08:30:49;;;;;;;32.45;7.65;;;10.60;99.90;;;;;;6185644;23;20075;-80
2022/11/10 08:33:17;;;;;;;35.70;7.85;;;10.70;99.90;;;;;;6160224;23;20088;-80
2022/11/10 08:35:46;;;;;;;33.92;9.32;;;10.70;99.90;;;;;;6210046;23;20013;-80
2022/11/10 08:38:18;;;;;;;25.67;6.53;;;10.70;99.90;;;;;;6212109;23;20017;-82
2022/11/10 08:40:44;;;;;;;27.08;7.78;;;10.70;99.90;;;;;;6162167;23;20060;-81
2022/11/10 08:43:12;;;;;;;27.85;7.90;;;10.70;99.90;;;;;;6185110;23;20017;-81
2022/11/10 08:45:40;;;;;;;29.08;7.82;;;10.70;99.90;;;;;;6186007;23;20023;-80
2022/11/10 08:48:09;;;;;;;31.75;7.43;;;10.80;99.90;;;;;;6185012;23;20036;-84
2022/11/10 08:50:35;;;;;;;26.73;7.30;;;10.80;99.90;;;;;;6186384;23;20451;-82
2022/11/10 08:53:08;;;;;;;29.35;7.75;;;10.90;99.90;;;;;;6210362;23;20017;-80
2022/11/10 08:55:34;;;;;;;28.45;9.30;;;10.90;99.90;;;;;;6185019;23;20405;-82
2022/11/10 08:58:02;;;;;;;26.95;7.57;;;10.80;99.90;;;;;;6184838;23;20048;-81
2022/11/10 09:00:29;;;;;;;29.30;7.97;;;10.80;99.90;;;;;;6186296;23;20013;-80
2022/11/10 09:02:55;;;;;;;29.23;8.55;;;10.80;99.90;;;;;;6185309;23;20015;-82
2022/11/10 09:05:22;;;;;;;29.60;8.98;;;10.80;99.90;;;;;;6184536;23;20009;-81
2022/11/10 09:07:49;;;;;;;31.02;8.57;;;10.80;99.90;;;;;;6184732;23;20091;-82
2022/11/10 09:10:15;;;;;;;34.95;9.30;;;10.80;99.90;;;;;;6184707;23;20092;-80
2022/11/10 09:12:42;;;;;;;25.27;8.65;;;11.00;99.90;;;;;;6184724;23;20088;-81
2022/11/10 09:15:09;;;;;;;23.92;7.57;;;11.00;99.90;;;;;;6186512;23;20013;-80
2022/11/10 09:17:35;;;;;;;24.25;7.40;;;11.20;99.90;;;;;;6184173;23;20009;-81
2022/11/10 09:20:02;;;;;;;29.23;8.75;;;11.30;99.90;;;;;;6184566;23;20059;-80
2022/11/10 09:22:28;;;;;;;24.02;7.88;;;11.30;99.90;;;;;;6184434;23;20013;-80
2022/11/10 09:24:53;;;;;;;34.85;9.15;;;11.20;99.90;;;;;;6184819;23;20044;-81
2022/11/10 09:27:19;;;;;;;32.38;8.45;;;11.30;99.90;;;;;;6159969;23;20092;-81
2022/11/10 09:29:45;;;;;;;30.10;8.25;;;11.30;99.90;;;;;;6186483;23;20099;-80
2022/11/10 09:32:10;;;;;;;20.55;7.63;;;11.30;99.90;;;;;;6186124;23;20021;-81
2022/11/10 09:34:36;;;;;;;22.13;7.53;;;11.40;99.90;;;;;;6185221;23;20017;-80
2022/11/10 09:37:02;;;;;;;28.23;8.18;;;11.40;99.90;;;;;;6185152;23;20017;-80
2022/11/10 09:39:28;;;;;;;24.48;7.47;;;11.40;99.90;;;;;;6185428;23;20346;-82
2022/11/10 09:41:53;;;;;;;21.92;7.15;;;11.50;99.90;;;;;;6185911;23;20013;-82
2022/11/10 09:44:34;;;;;;;22.77;7.47;;;11.50;99.90;;;;;;6184520;23;20021;-82
2022/11/10 09:47:18;;;;;;;25.45;6.90;;;11.50;99.90;;;;;;6184394;23;20021;-81
2022/11/10 09:49:51;;;;;;;26.63;8.35;;;11.50;99.90;;;;;;6184042;23;20084;-81
2022/11/10 09:52:19;;;;;;;49.22;10.02;;;11.60;99.90;;;;;;6159313;23;20021;-82
2022/11/10 09:54:52;;;;;;;25.20;7.75;;;11.60;99.90;;;;;;6159458;23;20024;-82
2022/11/10 09:57:23;;;;;;;24.00;8.05;;;11.70;99.90;;;;;;6184602;23;20009;-80
2022/11/10 09:59:48;;;;;;;19.98;6.50;;;11.90;99.90;;;;;;6184378;23;20458;-80
2022/11/10 10:02:39;;;;;;;24.38;6.72;;;12.00;99.90;;;;;;6184893;23;20013;-80
2022/11/10 10:05:23;;;;;;;23.52;6.95;;;12.10;99.90;;;;;;6160495;23;20504;-81
2022/11/10 10:08:00;;;;;;;26.20;6.88;;;12.20;99.90;;;;;;6186005;23;20342;-77
2022/11/10 10:10:46;;;;;;;27.77;6.97;;;12.30;99.90;;;;;;6188137;23;20016;-78
2022/11/10 10:13:37;;;;;;;23.83;6.82;;;12.30;99.90;;;;;;6187052;23;20304;-81
2022/11/10 10:16:02;;;;;;;30.42;8.60;;;12.30;99.90;;;;;;6185884;23;20443;-81
2022/11/10 10:18:33;;;;;;;33.08;8.48;;;12.40;99.90;;;;;;6183937;23;20052;-81
2022/11/10 10:21:07;;;;;;;27.27;7.57;;;12.40;99.90;;;;;;6184031;23;20097;-82
2022/11/10 10:23:43;;;;;;;30.63;9.07;;;12.50;99.90;;;;;;6159336;23;20021;-81
2022/11/10 10:26:14;;;;;;;33.25;10.00;;;12.50;99.90;;;;;;6184545;23;20255;-81
2022/11/10 10:28:44;;;;;;;26.38;10.18;;;12.50;99.90;;;;;;6185615;23;20017;-79
2022/11/10 10:31:22;;;;;;;29.58;10.40;;;12.60;99.90;;;;;;6188537;23;20045;-82
2022/11/10 10:33:48;;;;;;;31.30;8.57;;;12.60;99.90;;;;;;6187018;23;20048;-82
2022/11/10 10:36:24;;;;;;;30.80;9.52;;;12.60;99.90;;;;;;6188668;23;20015;-80
2022/11/10 10:38:53;;;;;;;20.95;8.07;;;12.60;99.90;;;;;;6187039;23;20017;-83
2022/11/10 10:41:24;;;;;;;31.05;8.52;;;12.70;99.90;;;;;;6186436;23;20063;-80
2022/11/10 10:43:53;;;;;;;27.67;8.07;;;12.70;99.90;;;;;;6161490;23;20021;-81
2022/11/10 10:46:25;;;;;;;26.20;7.72;;;12.60;99.90;;;;;;6161009;23;20017;-80
2022/11/10 10:49:11;;;;;;;24.25;6.80;;;12.60;99.90;;;;;;6187978;23;20013;-80
2022/11/10 10:51:37;;;;;;;28.70;6.97;;;12.50;99.90;;;;;;6210589;23;20017;-80
2022/11/10 10:54:02;;;;;;;19.88;6.20;;;12.50;99.90;;;;;;6186018;23;20044;-81
2022/11/10 10:56:32;;;;;;;22.90;6.60;;;12.50;99.90;;;;;;6160888;23;20013;-80
2022/11/10 10:59:01;;;;;;;23.40;5.80;;;12.50;99.90;;;;;;6185639;23;20312;-82
2022/11/10 11:01:37;;;;;;;18.77;5.57;;;12.60;99.90;;;;;;6210513;23;20088;-80
2022/11/10 11:04:34;;;;;;;27.85;5.95;;;12.60;99.90;;;;;;6187345;23;20016;-81
2022/11/10 11:07:04;;;;;;;22.83;4.75;;;12.60;99.90;;;;;;6161065;23;20428;-80
2022/11/10 11:09:42;;;;;;;22.38;4.93;;;12.60;99.90;;;;;;6187441;23;20395;-81
2022/11/10 11:12:19;;;;;;;27.77;5.50;;;12.60;99.90;;;;;;6186888;23;20009;-80
2022/11/10 11:14:45;;;;;;;22.40;5.50;;;12.60;99.90;;;;;;6187358;23;20020;-80
2022/11/10 11:17:18;;;;;;;21.00;5.00;;;12.60;99.90;;;;;;6185411;23;20017;-81
2022/11/10 11:19:44;;;;;;;24.27;4.88;;;12.60;99.90;;;;;;6185456;23;20435;-80
2022/11/10 11:22:36;;;;;;;23.58;4.88;;;12.70;99.90;;;;;;6185281;23;20013;-79
2022/11/10 11:25:22;;;;;;;19.83;6.00;;;12.70;99.90;;;;;;6187135;23;20087;-80
2022/11/10 11:27:57;;;;;;;23.77;5.35;;;12.80;99.90;;;;;;6187645;23;20427;-81
2022/11/10 11:30:29;;;;;;;19.55;3.97;;;12.80;99.90;;;;;;6185282;23;20043;-81
2022/11/10 11:33:13;;;;;;;21.30;4.78;;;12.90;99.90;;;;;;6185368;23;20049;-81
2022/11/10 11:35:57;;;;;;;30.92;4.28;;;12.90;99.90;;;;;;6186902;23;20064;-80
2022/11/10 11:38:30;;;;;;;30.42;6.38;;;12.90;99.90;;;;;;6187056;23;20012;-80
2022/11/10 11:41:22;;;;;;;17.45;4.50;;;12.90;99.90;;;;;;6187840;23;20148;-81
2022/11/10 11:44:04;;;;;;;25.23;4.13;;;12.90;99.90;;;;;;6194269;23;20048;-81
2022/11/10 11:46:54;;;;;;;24.33;4.60;;;12.90;99.90;;;;;;6187211;23;20020;-80
2022/11/10 11:49:36;;;;;;;17.33;3.90;;;13.00;99.90;;;;;;6187094;23;20137;-82
2022/11/10 11:52:11;;;;;;;21.35;3.28;;;13.00;99.90;;;;;;6187005;23;20382;-81
2022/11/10 11:54:45;;;;;;;17.27;3.38;;;13.00;99.90;;;;;;6186394;23;20017;-81
2022/11/10 11:57:27;;;;;;;18.42;3.78;;;13.00;99.90;;;;;;6186672;23;20021;-81
2022/11/10 12:00:04;;;;;;;24.60;3.47;;;13.00;99.90;;;;;;6186484;23;20486;-80
2022/11/10 12:02:55;;;;;;;18.55;4.28;;;13.10;99.90;;;;;;6187231;23;20016;-81
2022/11/10 12:05:42;;;;;;;18.17;2.92;;;13.10;99.90;;;;;;6210009;23;20021;-81
2022/11/10 12:08:32;;;;;;;22.65;2.85;;;13.10;99.90;;;;;;6186923;23;20013;-82
2022/11/10 12:11:09;;;;;;;18.05;3.35;;;13.10;99.90;;;;;;6185067;23;20407;-81
2022/11/10 12:13:57;;;;;;;18.42;3.83;;;13.20;99.90;;;;;;6210149;23;20052;-81
2022/11/10 12:16:29;;;;;;;34.78;5.75;;;13.20;99.90;;;;;;6185711;23;20017;-81
2022/11/10 12:19:08;;;;;;;21.67;3.40;;;13.20;99.90;;;;;;6186804;23;20020;-83
2022/11/10 12:21:50;;;;;;;22.48;3.65;;;13.20;99.90;;;;;;6185217;23;20088;-81
2022/11/10 12:24:37;;;;;;;20.02;4.10;;;13.30;99.90;;;;;;6186662;23;20020;-82
2022/11/10 12:27:16;;;;;;;23.83;3.58;;;13.30;99.90;;;;;;6185603;23;20017;-79
2022/11/10 12:29:53;;;;;;;21.17;4.53;;;13.30;99.90;;;;;;6184838;23;20398;-82
2022/11/10 12:32:36;;;;;;;18.23;3.05;;;13.40;99.90;;;;;;6185162;23;20394;-81
2022/11/10 12:35:18;;;;;;;15.32;2.92;;;13.40;99.90;;;;;;6184692;23;20386;-82
2022/11/10 12:37:58;;;;;;;29.88;4.90;;;13.40;99.90;;;;;;6187133;23;20357;-80
2022/11/10 12:40:40;;;;;;;19.23;2.70;;;13.40;99.90;;;;;;6186749;23;20009;-80
2022/11/10 12:43:22;;;;;;;18.17;3.03;;;13.50;99.90;;;;;;6184504;23;20013;-80
2022/11/10 12:45:53;;;;;;;14.90;2.80;;;13.50;99.90;;;;;;6186674;23;20020;-81
2022/11/10 12:48:20;;;;;;;17.00;3.10;;;13.50;99.90;;;;;;6184862;23;20084;-82
2022/11/10 12:51:15;;;;;;;13.38;2.67;;;13.50;99.90;;;;;;6186088;23;20439;-80
2022/11/10 12:53:41;;;;;;;17.77;3.35;;;13.50;99.90;;;;;;6184046;23;20013;-81
2022/11/10 12:56:16;;;;;;;16.25;2.95;;;13.60;99.90;;;;;;6184974;23;20009;-82
2022/11/10 12:58:42;;;;;;;17.85;3.28;;;13.60;99.90;;;;;;6186312;23;20016;-80
2022/11/10 13:01:17;;;;;;;18.55;3.13;;;13.60;99.90;;;;;;6159830;23;20312;-80
2022/11/10 13:03:58;;;;;;;20.00;2.90;;;13.60;99.90;;;;;;6184593;23;20013;-80
2022/11/10 13:06:31;;;;;;;18.23;3.78;;;13.60;99.90;;;;;;6185009;23;20293;-81
2022/11/10 13:08:58;;;;;;;23.45;3.03;;;13.70;99.90;;;;;;6184831;23;20016;-80
2022/11/10 13:11:35;;;;;;;17.95;3.00;;;13.70;99.90;;;;;;6186584;23;20012;-82
2022/11/10 13:14:24;;;;;;;17.20;3.72;;;13.80;99.90;;;;;;6185943;23;20100;-81
2022/11/10 13:16:52;;;;;;;18.98;4.47;;;13.80;99.90;;;;;;6185500;23;20466;-81
2022/11/10 13:19:27;;;;;;;22.13;3.45;;;13.80;99.90;;;;;;6186320;23;20013;-79
2022/11/10 13:22:05;;;;;;;16.80;2.97;;;13.80;99.90;;;;;;6184406;23;20017;-83
2022/11/10 13:24:32;;;;;;;26.88;3.47;;;13.70;99.90;;;;;;6184467;23;20406;-82
2022/11/10 13:27:02;;;;;;;22.17;3.40;;;13.80;99.90;;;;;;6184566;23;20017;-81
2022/11/10 13:29:47;;;;;;;20.83;3.95;;;13.70;99.90;;;;;;6185993;23;20473;-83
2022/11/10 13:32:13;;;;;;;16.23;3.22;;;13.70;99.90;;;;;;6183449;23;20397;-80
2022/11/10 13:34:39;;;;;;;17.10;3.10;;;13.70;99.90;;;;;;6184309;23;20013;-80
2022/11/10 13:37:33;;;;;;;16.17;3.05;;;13.70;99.90;;;;;;6159786;23;20013;-81
2022/11/10 13:40:23;;;;;;;21.73;3.63;;;13.70;99.90;;;;;;6184507;23;20378;-81
2022/11/10 13:42:58;;;;;;;21.98;4.15;;;13.60;99.90;;;;;;6184263;23;20088;-79
2022/11/10 13:45:35;;;;;;;17.77;3.00;;;13.60;99.90;;;;;;6184461;23;20047;-81
2022/11/10 13:48:13;;;;;;;21.45;3.33;;;13.60;99.90;;;;;;6159327;23;20017;-81
2022/11/10 13:51:06;;;;;;;20.15;4.50;;;13.60;99.90;;;;;;6186222;23;20080;-82
2022/11/10 13:54:00;;;;;;;21.77;3.65;;;13.70;99.90;;;;;;6186523;23;20009;-82
2022/11/10 13:57:00;;;;;;;22.58;4.80;;;13.70;99.90;;;;;;6184367;23;20013;-84
2022/11/10 13:59:29;;;;;;;22.33;3.75;;;13.70;99.90;;;;;;6185966;23;20151;-81
2022/11/10 14:02:36;;;;;;;20.90;4.28;;;13.70;99.90;;;;;;6184594;23;20044;-82
2022/11/10 14:05:06;;;;;;;19.73;3.63;;;13.70;99.90;;;;;;6186028;23;20069;-81
2022/11/10 14:07:45;;;;;;;19.13;3.95;;;13.70;99.90;;;;;;6186224;23;20017;-82
2022/11/10 14:10:25;;;;;;;24.75;4.50;;;13.70;99.90;;;;;;6186292;23;20017;-83
2022/11/10 14:13:04;;;;;;;17.17;3.28;;;13.70;99.90;;;;;;6184224;23;20025;-82
2022/11/10 14:15:42;;;;;;;19.58;3.60;;;13.70;99.90;;;;;;6184098;23;20079;-80
2022/11/10 14:18:27;;;;;;;21.00;3.45;;;13.70;99.90;;;;;;6186004;23;20009;-79
2022/11/10 14:20:59;;;;;;;14.30;3.88;;;13.70;99.90;;;;;;6159393;23;20013;-82
2022/11/10 14:23:46;;;;;;;18.67;4.18;;;13.60;99.90;;;;;;6184354;23;20013;-82
2022/11/10 14:26:37;;;;;;;15.48;3.17;;;13.60;99.90;;;;;;6184768;23;20055;-79
2022/11/10 14:29:38;;;;;;;16.67;3.10;;;13.60;99.90;;;;;;6168572;23;20013;-80
2022/11/10 14:32:16;;;;;;;20.90;3.55;;;13.60;99.90;;;;;;6159332;23;20500;-80
2022/11/10 14:34:46;;;;;;;15.98;3.70;;;13.50;99.90;;;;;;6209251;23;20021;-81
2022/11/10 14:37:16;;;;;;;18.65;3.60;;;13.50;99.90;;;;;;6186233;23;20435;-81
2022/11/10 14:39:42;;;;;;;18.80;2.88;;;13.50;99.90;;;;;;6186654;23;20005;-82
2022/11/10 14:42:18;;;;;;;18.58;3.42;;;13.50;99.90;;;;;;6184911;23;20060;-79
2022/11/10 14:44:43;;;;;;;14.57;3.30;;;13.50;99.90;;;;;;6186480;23;20067;-78
2022/11/10 14:47:24;;;;;;;18.38;3.10;;;13.50;99.90;;;;;;6184309;23;20092;-82
2022/11/10 14:50:06;;;;;;;20.17;4.15;;;13.50;99.90;;;;;;6186001;23;20452;-81
2022/11/10 14:52:37;;;;;;;16.73;3.03;;;13.40;99.90;;;;;;6184092;23;20036;-82
2022/11/10 14:55:08;;;;;;;16.08;3.38;;;13.40;99.90;;;;;;6184690;23;20058;-79
2022/11/10 14:57:34;;;;;;;20.38;3.75;;;13.40;99.90;;;;;;6209590;23;20089;-82
2022/11/10 15:00:04;;;;;;;16.05;3.38;;;13.40;99.90;;;;;;6210096;23;20012;-82
2022/11/10 15:02:30;;;;;;;14.95;2.92;;;13.40;99.90;;;;;;6186424;23;20320;-80
2022/11/10 15:04:56;;;;;;;17.98;3.60;;;13.40;99.90;;;;;;6187418;23;20013;-84
2022/11/10 15:07:22;;;;;;;14.88;3.72;;;13.40;99.90;;;;;;6186245;23;20059;-83
2022/11/10 15:10:22;;;;;;;18.50;3.20;;;13.40;99.90;;;;;;6186324;23;20009;-82
2022/11/10 15:12:59;;;;;;;12.52;2.72;;;13.50;99.90;;;;;;6184851;23;20019;-82
2022/11/10 15:15:24;;;;;;;16.73;3.33;;;13.40;99.90;;;;;;6185575;23;20017;-80
2022/11/10 15:17:51;;;;;;;19.63;3.67;;;13.40;99.90;;;;;;6186044;23;20394;-79
2022/11/10 15:20:30;;;;;;;18.40;3.42;;;13.40;99.90;;;;;;6186406;23;20017;-79
2022/11/10 15:23:00;;;;;;;15.55;3.20;;;13.40;99.90;;;;;;6162598;23;20040;-79
2022/11/10 15:25:38;;;;;;;20.80;4.35;;;13.40;99.90;;;;;;6187824;23;20351;-81
2022/11/10 15:28:05;;;;;;;14.43;3.50;;;13.40;99.90;;;;;;6186519;23;20021;-79
2022/11/10 15:30:32;;;;;;;19.75;3.60;;;13.40;99.90;;;;;;6187353;23;20013;-81
2022/11/10 15:32:58;;;;;;;21.25;3.55;;;13.40;99.90;;;;;;6188142;23;20009;-81
2022/11/10 15:35:24;;;;;;;18.25;3.25;;;13.40;99.90;;;;;;6188712;23;20348;-80
2022/11/10 15:38:12;;;;;;;17.27;3.50;;;13.40;99.90;;;;;;6194198;23;20367;-80
2022/11/10 15:40:41;;;;;;;19.15;3.30;;;13.40;99.90;;;;;;6189310;23;20044;-80
2022/11/10 15:43:25;;;;;;;17.90;3.25;;;13.40;99.90;;;;;;6188228;23;20020;-78
2022/11/10 15:45:58;;;;;;;18.02;3.42;;;13.40;99.90;;;;;;6187888;23;20024;-82
2022/11/10 15:48:25;;;;;;;11.88;2.63;;;13.40;99.90;;;;;;6211602;23;20021;-82
2022/11/10 15:50:54;;;;;;;14.07;2.85;;;13.40;99.90;;;;;;6211359;23;20063;-80
2022/11/10 15:53:29;;;;;;;17.15;3.33;;;13.40;99.90;;;;;;6187384;23;20020;-78
2022/11/10 15:55:55;;;;;;;15.70;2.45;;;13.40;99.90;;;;;;6187829;23;20096;-79
2022/11/10 15:58:22;;;;;;;15.82;3.20;;;13.40;99.90;;;;;;6160307;23;20041;-81
2022/11/10 16:00:48;;;;;;;14.05;2.47;;;13.40;99.90;;;;;;6184915;23;20012;-80
2022/11/10 16:03:17;;;;;;;13.32;2.65;;;13.40;99.90;;;;;;6185005;23;20047;-82
2022/11/10 16:05:43;;;;;;;13.00;2.80;;;13.30;99.90;;;;;;6186732;23;20052;-85
2022/11/10 16:08:20;;;;;;;12.45;2.83;;;13.40;99.90;;;;;;6186697;23;20013;-81
2022/11/10 16:10:54;;;;;;;14.10;2.70;;;13.30;99.90;;;;;;6186591;23;20013;-79
2022/11/10 16:13:25;;;;;;;14.40;3.05;;;13.30;99.90;;;;;;6185231;23;20452;-79
2022/11/10 16:15:52;;;;;;;17.05;3.42;;;13.30;99.90;;;;;;6184872;23;20360;-79
2022/11/10 16:18:23;;;;;;;13.20;2.60;;;13.30;99.90;;;;;;6184948;23;20016;-79
2022/11/10 16:20:50;;;;;;;15.02;2.92;;;13.30;99.90;;;;;;6186830;23;20084;-81
2022/11/10 16:23:16;;;;;;;18.73;3.78;;;13.30;99.90;;;;;;6184815;23;20121;-79
2022/11/10 16:25:43;;;;;;;15.07;3.67;;;13.30;99.90;;;;;;6184698;23;20044;-80
2022/11/10 16:28:12;;;;;;;12.63;3.25;;;13.30;99.90;;;;;;6186357;23;20052;-81
2022/11/10 16:30:38;;;;;;;15.43;2.80;;;13.30;99.90;;;;;;6186258;23;20144;-78
2022/11/10 16:33:03;;;;;;;20.02;5.22;;;13.20;99.90;;;;;;6184963;23;20048;-79
2022/11/10 16:35:29;;;;;;;15.00;3.33;;;13.20;99.90;;;;;;6186747;23;20021;-79
2022/11/10 16:37:55;;;;;;;17.05;3.45;;;13.20;99.90;;;;;;6186911;23;20336;-81
2022/11/10 16:40:23;;;;;;;14.30;3.25;;;13.20;99.90;;;;;;6159807;23;20005;-78
2022/11/10 16:42:49;;;;;;;19.17;2.72;;;13.20;99.90;;;;;;6184758;23;20435;-77
2022/11/10 16:45:23;;;;;;;17.58;3.90;;;13.20;99.90;;;;;;6160129;23;20431;-79
2022/11/10 16:47:51;;;;;;;14.98;3.10;;;13.20;99.90;;;;;;6160115;23;20021;-80
2022/11/10 16:50:31;;;;;;;14.60;3.40;;;13.20;99.90;;;;;;6159792;23;20019;-78
2022/11/10 16:52:59;;;;;;;11.23;2.50;;;13.20;99.90;;;;;;6186917;23;20009;-80
2022/11/10 16:55:25;;;;;;;13.00;3.13;;;13.20;99.90;;;;;;6186491;23;20023;-78
2022/11/10 16:57:50;;;;;;;11.50;2.60;;;13.20;99.90;;;;;;6186436;23;20334;-79
2022/11/10 17:00:17;;;;;;;19.77;3.28;;;13.20;99.90;;;;;;6184493;23;20012;-79
2022/11/10 17:03:00;;;;;;;17.00;2.95;;;13.20;99.90;;;;;;6159506;23;20045;-81
2022/11/10 17:05:26;;;;;;;12.18;2.40;;;13.20;99.90;;;;;;6184785;23;20024;-78
2022/11/10 17:07:52;;;;;;;17.60;2.58;;;13.20;99.90;;;;;;6184608;23;20013;-79
2022/11/10 17:10:19;;;;;;;14.25;2.70;;;13.20;99.90;;;;;;6184464;23;20100;-80
2022/11/10 17:12:46;;;;;;;11.50;2.97;;;13.20;99.90;;;;;;6186394;23;20009;-82